createdAt,value
2018-01-12T00:02:20.887Z,2.11
2018-01-12T00:04:49.349Z,2.12
2018-01-12T00:07:17.966Z,2.12
2018-01-12T00:09:46.378Z,2.09
2018-01-12T00:12:14.787Z,2.11
2018-01-12T00:14:44.844Z,1.81
2018-01-12T00:17:13.325Z,2.06
2018-01-12T00:19:41.768Z,2.08
2018-01-12T00:22:10.995Z,2.20
2018-01-12T00:24:39.382Z,2.26
2018-01-12T00:27:07.770Z,2.33
2018-01-12T00:29:36.242Z,2.30
2018-01-12T00:32:04.591Z,2.46
2018-01-12T00:34:32.939Z,2.47
2018-01-12T00:37:01.289Z,2.56
2018-01-12T00:39:29.632Z,2.57
2018-01-12T00:41:58.054Z,2.50
2018-01-12T00:44:26.462Z,2.40
2018-01-12T00:46:55.572Z,2.45
2018-01-12T00:49:23.998Z,2.57
2018-01-12T00:51:52.332Z,2.65
2018-01-12T00:54:21.428Z,2.75
2018-01-12T00:56:49.782Z,2.75
2018-01-12T00:59:18.175Z,2.70
2018-01-12T01:01:46.532Z,2.69
2018-01-12T01:04:14.935Z,2.57
2018-01-12T01:06:43.342Z,2.42
2018-01-12T01:09:11.689Z,2.42
2018-01-12T01:11:40.110Z,2.40
2018-01-12T01:14:08.586Z,2.37
2018-01-12T01:16:36.990Z,2.41
2018-01-12T01:19:05.380Z,2.29
2018-01-12T01:21:33.785Z,2.41
2018-01-12T01:24:02.913Z,2.43
2018-01-12T01:26:31.326Z,2.42
2018-01-12T01:28:59.740Z,2.31
2018-01-12T01:31:28.848Z,2.42
2018-01-12T01:33:57.943Z,2.34
2018-01-12T01:36:26.358Z,2.33
2018-01-12T01:38:54.770Z,2.46
2018-01-12T01:41:23.168Z,2.36
2018-01-12T01:43:51.595Z,2.43
2018-01-12T01:46:20.706Z,2.43
2018-01-12T01:48:49.463Z,2.43
2018-01-12T01:51:17.872Z,2.48
2018-01-12T01:53:46.280Z,2.32
2018-01-12T01:56:14.631Z,2.40
2018-01-12T01:58:42.988Z,2.50
2018-01-12T02:01:11.320Z,2.50
2018-01-12T02:03:39.712Z,2.54
2018-01-12T02:06:08.918Z,2.59
2018-01-12T02:08:38.040Z,2.61
2018-01-12T02:11:06.373Z,2.57
2018-01-12T02:13:35.255Z,2.52
2018-01-12T02:16:03.663Z,2.57
2018-01-12T02:18:32.066Z,2.70
2018-01-12T02:21:00.526Z,2.61
2018-01-12T02:23:28.932Z,2.45
2018-01-12T02:25:57.340Z,2.43
2018-01-12T02:28:25.692Z,2.49
2018-01-12T02:30:54.024Z,2.45
2018-01-12T02:33:22.355Z,2.54
2018-01-12T02:35:50.780Z,2.65
2018-01-12T02:38:19.908Z,2.53
2018-01-12T02:40:48.428Z,2.58
2018-01-12T02:43:16.778Z,2.62
2018-01-12T02:45:45.171Z,2.52
2018-01-12T02:48:13.611Z,2.50
2018-01-12T02:50:41.960Z,2.52
2018-01-12T02:53:10.292Z,2.47
2018-01-12T02:55:38.651Z,2.51
2018-01-12T02:58:07.823Z,2.66
2018-01-12T03:00:36.991Z,2.68
2018-01-12T03:03:05.395Z,2.72
2018-01-12T03:05:33.791Z,2.75
2018-01-12T03:08:02.967Z,2.72
2018-01-12T03:10:31.367Z,2.81
2018-01-12T03:12:59.750Z,2.64
2018-01-12T03:15:28.162Z,2.60
2018-01-12T03:17:56.571Z,2.52
2018-01-12T03:20:25.006Z,2.58
2018-01-12T03:22:53.375Z,2.66
2018-01-12T03:25:21.716Z,2.64
2018-01-12T03:27:50.183Z,2.59
2018-01-12T03:30:18.556Z,2.67
2018-01-12T03:32:46.982Z,2.64
2018-01-12T03:35:16.290Z,2.62
2018-01-12T03:37:44.769Z,2.60
2018-01-12T03:40:14.036Z,2.47
2018-01-12T03:42:42.481Z,2.56
2018-01-12T03:45:10.884Z,2.73
2018-01-12T03:47:39.239Z,2.73
2018-01-12T03:50:07.647Z,2.90
2018-01-12T03:52:36.046Z,3.01
2018-01-12T03:55:04.455Z,3.05
2018-01-12T03:57:32.999Z,2.91
2018-01-12T04:00:01.418Z,2.87
2018-01-12T04:02:29.827Z,2.81
2018-01-12T04:04:58.210Z,2.81
2018-01-12T04:07:26.532Z,2.89
2018-01-12T04:09:54.869Z,2.91
2018-01-12T04:12:23.204Z,2.88
2018-01-12T04:14:52.388Z,3.06
2018-01-12T04:17:21.557Z,3.06
2018-01-12T04:19:49.978Z,3.06
2018-01-12T04:22:18.411Z,3.07
2018-01-12T04:24:46.823Z,3.05
2018-01-12T04:27:15.948Z,2.97
2018-01-12T04:29:44.436Z,3.08
2018-01-12T04:32:12.914Z,3.10
2018-01-12T04:34:41.379Z,3.15
2018-01-12T04:37:09.789Z,2.98
2018-01-12T04:39:38.269Z,2.86
2018-01-12T04:42:06.668Z,3.07
2018-01-12T04:44:35.262Z,3.04
2018-01-12T04:47:03.759Z,2.98
2018-01-12T04:49:32.296Z,2.99
2018-01-12T04:52:01.491Z,2.98
2018-01-12T04:54:29.933Z,3.01
2018-01-12T04:56:58.498Z,2.97
2018-01-12T04:59:27.020Z,2.87
2018-01-12T05:01:55.570Z,2.75
2018-01-12T05:04:24.121Z,2.72
2018-01-12T05:06:52.667Z,2.70
2018-01-12T05:09:21.329Z,2.72
2018-01-12T05:11:50.568Z,2.75
2018-01-12T05:14:19.093Z,2.66
2018-01-12T05:16:47.679Z,2.57
2018-01-12T05:19:16.453Z,2.60
2018-01-12T05:21:45.208Z,2.58
2018-01-12T05:24:13.694Z,2.56
2018-01-12T05:26:42.308Z,2.55
2018-01-12T05:29:10.663Z,2.57
2018-01-12T05:31:39.045Z,2.55
2018-01-12T05:34:07.570Z,2.57
2018-01-12T05:36:36.804Z,2.58
2018-01-12T05:39:05.336Z,2.65
2018-01-12T05:41:33.831Z,2.64
2018-01-12T05:44:02.209Z,2.57
2018-01-12T05:46:30.948Z,2.49
2018-01-12T05:48:59.418Z,2.42
2018-01-12T05:51:27.833Z,2.52
2018-01-12T05:53:56.321Z,2.51
2018-01-12T05:56:24.760Z,2.51
2018-01-12T05:58:53.250Z,2.62
2018-01-12T06:01:39.194Z,2.68
2018-01-12T06:04:25.175Z,2.65
2018-01-12T06:06:53.582Z,2.75
2018-01-12T06:09:21.979Z,2.72
2018-01-12T06:11:50.382Z,2.70
2018-01-12T06:14:18.794Z,2.67
2018-01-12T06:16:47.159Z,2.70
2018-01-12T06:19:15.592Z,2.66
2018-01-12T06:21:43.989Z,2.67
2018-01-12T06:24:12.329Z,2.74
2018-01-12T06:26:41.514Z,2.70
2018-01-12T06:29:10.620Z,2.72
2018-01-12T06:31:39.791Z,2.71
2018-01-12T06:34:08.206Z,2.81
2018-01-12T06:36:37.386Z,2.81
2018-01-12T06:39:05.764Z,2.72
2018-01-12T06:41:34.105Z,2.62
2018-01-12T06:44:02.500Z,2.56
2018-01-12T06:46:30.855Z,2.56
2018-01-12T06:48:59.265Z,2.49
2018-01-12T06:51:27.673Z,2.40
2018-01-12T06:53:56.886Z,2.43
2018-01-12T06:56:25.287Z,2.47
2018-01-12T06:58:53.620Z,2.46
2018-01-12T07:01:22.741Z,2.52
2018-01-12T07:03:51.123Z,2.53
2018-01-12T07:06:19.560Z,2.54
2018-01-12T07:08:47.915Z,2.62
2018-01-12T07:11:16.301Z,2.63
2018-01-12T07:13:44.634Z,2.72
2018-01-12T07:16:12.997Z,2.69
2018-01-12T07:18:42.100Z,2.71
2018-01-12T07:21:28.083Z,2.73
2018-01-12T07:23:56.417Z,2.80
2018-01-12T07:26:24.740Z,2.81
2018-01-12T07:28:53.170Z,2.83
2018-01-12T07:31:21.504Z,2.82
2018-01-12T07:33:49.824Z,3.17
2018-01-12T07:36:18.230Z,3.02
2018-01-12T07:38:46.651Z,3.18
2018-01-12T07:41:15.156Z,2.89
2018-01-12T07:43:43.578Z,2.88
2018-01-12T07:46:12.742Z,2.88
2018-01-12T07:48:41.171Z,2.86
2018-01-12T07:51:10.343Z,2.91
2018-01-12T07:53:38.740Z,2.93
2018-01-12T07:56:07.959Z,2.90
2018-01-12T07:58:37.167Z,2.85
2018-01-12T08:01:10.978Z,2.84
2018-01-12T08:03:39.382Z,2.94
2018-01-12T08:06:07.736Z,2.99
2018-01-12T08:08:36.072Z,3.03
2018-01-12T08:11:04.462Z,2.96
2018-01-12T08:13:33.592Z,2.91
2018-01-12T08:16:01.945Z,2.90
2018-01-12T08:18:31.047Z,2.84
2018-01-12T08:21:00.157Z,2.87
2018-01-12T08:23:28.479Z,2.79
2018-01-12T08:25:56.814Z,2.75
2018-01-12T08:28:25.190Z,2.80
2018-01-12T08:30:53.578Z,2.72
2018-01-12T08:33:21.912Z,2.81
2018-01-12T08:35:50.311Z,2.84
2018-01-12T08:38:19.048Z,3.27
2018-01-12T08:40:47.452Z,3.19
2018-01-12T08:43:16.590Z,3.49
2018-01-12T08:45:44.981Z,3.12
2018-01-12T08:48:13.390Z,3.23
2018-01-12T08:50:41.760Z,3.30
2018-01-12T08:53:10.145Z,3.16
2018-01-12T08:55:38.547Z,3.24
2018-01-12T08:58:08.527Z,3.42
2018-01-12T09:00:36.851Z,3.32
2018-01-12T09:03:06.007Z,3.21
2018-01-12T09:05:34.428Z,3.28
2018-01-12T09:08:02.802Z,3.34
2018-01-12T09:10:31.941Z,3.52
2018-01-12T09:13:01.098Z,3.55
2018-01-12T09:15:30.204Z,3.59
2018-01-12T09:18:01.218Z,3.52
2018-01-12T09:20:35.852Z,3.37
2018-01-12T09:26:09.614Z,3.17
2018-01-12T09:28:38.805Z,3.11
2018-01-12T09:31:07.971Z,3.12
2018-01-12T09:33:36.380Z,3.05
2018-01-12T09:36:05.548Z,3.11
2018-01-12T09:38:45.870Z,3.16
2018-01-12T09:41:14.203Z,3.00
2018-01-12T09:43:42.541Z,3.07
2018-01-12T09:46:10.951Z,3.12
2018-01-12T09:48:39.299Z,3.21
2018-01-12T09:51:07.629Z,3.19
2018-01-12T09:53:36.824Z,3.16
2018-01-12T09:56:06.004Z,3.16
2018-01-12T09:58:34.375Z,3.10
2018-01-12T10:01:03.581Z,3.20
2018-01-12T10:03:31.935Z,3.23
2018-01-12T10:06:00.443Z,3.37
2018-01-12T10:08:28.777Z,3.39
2018-01-12T10:10:57.095Z,3.42
2018-01-12T10:13:25.516Z,3.45
2018-01-12T10:15:53.907Z,3.44
2018-01-12T10:18:34.969Z,3.59
2018-01-12T10:21:13.088Z,3.65
2018-01-12T10:23:41.461Z,3.74
2018-01-12T10:26:09.856Z,3.94
2018-01-12T10:28:55.908Z,3.99
2018-01-12T10:34:45.294Z,4.09
2018-01-12T10:37:14.436Z,4.16
2018-01-12T10:39:59.092Z,4.20
2018-01-12T10:42:27.512Z,4.06
2018-01-12T10:44:55.864Z,4.02
2018-01-12T10:47:26.902Z,4.10
2018-01-12T10:53:11.530Z,4.05
2018-01-12T10:55:39.934Z,4.08
2018-01-12T10:58:08.303Z,4.25
2018-01-12T11:00:36.704Z,4.08
2018-01-12T11:03:05.043Z,4.15
2018-01-12T11:05:34.226Z,4.20
2018-01-12T11:08:02.638Z,4.11
2018-01-12T11:10:30.978Z,4.16
2018-01-12T11:12:59.402Z,4.12
2018-01-12T11:15:27.836Z,4.44
2018-01-12T11:17:56.943Z,4.42
2018-01-12T11:20:26.120Z,4.45
2018-01-12T11:22:54.520Z,4.27
2018-01-12T11:25:23.627Z,4.35
2018-01-12T11:27:51.984Z,4.38
2018-01-12T11:30:20.343Z,4.35
2018-01-12T11:32:48.679Z,4.60
2018-01-12T11:35:17.118Z,4.68
2018-01-12T11:37:46.260Z,4.56
2018-01-12T11:40:14.574Z,4.61
2018-01-12T11:42:42.958Z,4.67
2018-01-12T11:45:11.296Z,4.81
2018-01-12T11:47:39.622Z,4.76
2018-01-12T11:50:07.984Z,4.86
2018-01-12T11:52:36.386Z,4.71
2018-01-12T11:55:05.554Z,4.50
2018-01-12T11:57:33.988Z,4.62
2018-01-12T12:00:02.405Z,4.60
2018-01-12T12:02:30.803Z,4.51
2018-01-12T12:04:59.227Z,4.45
2018-01-12T12:07:27.655Z,4.51
2018-01-12T12:09:56.264Z,4.53
2018-01-12T12:12:24.698Z,4.41
2018-01-12T12:14:53.028Z,4.41
2018-01-12T12:17:21.379Z,4.59
2018-01-12T12:19:49.767Z,4.38
2018-01-12T12:22:18.169Z,4.30
2018-01-12T12:24:46.534Z,4.30
2018-01-12T12:27:14.922Z,4.35
2018-01-12T12:29:43.254Z,4.34
2018-01-12T12:32:12.365Z,4.25
2018-01-12T12:34:40.754Z,4.29
2018-01-12T12:37:09.868Z,4.33
2018-01-12T12:39:39.062Z,4.30
2018-01-12T12:42:08.244Z,4.30
2018-01-12T12:44:36.662Z,4.29
2018-01-12T12:47:05.052Z,4.20
2018-01-12T12:49:33.390Z,4.22
2018-01-12T12:52:02.612Z,4.10
2018-01-12T12:54:30.952Z,4.15
2018-01-12T12:57:00.072Z,4.10
2018-01-12T12:59:29.254Z,4.03
2018-01-12T13:01:58.447Z,4.01
2018-01-12T13:04:27.615Z,4.10
2018-01-12T13:06:56.035Z,4.07
2018-01-12T13:09:25.207Z,4.13
2018-01-12T13:11:53.567Z,4.08
2018-01-12T13:14:21.930Z,4.24
2018-01-12T13:16:50.246Z,4.16
2018-01-12T13:19:18.650Z,4.12
2018-01-12T13:21:47.875Z,4.09
2018-01-12T13:24:16.282Z,4.12
2018-01-12T13:26:44.621Z,4.12
2018-01-12T13:29:13.043Z,4.08
2018-01-12T13:31:41.451Z,4.11
2018-01-12T13:34:10.634Z,4.09
2018-01-12T13:36:39.055Z,4.11
2018-01-12T13:39:07.477Z,4.11
2018-01-12T13:41:35.870Z,4.08
2018-01-12T13:44:04.216Z,4.01
2018-01-12T13:46:32.573Z,3.99
2018-01-12T13:49:00.948Z,3.97
2018-01-12T13:51:29.282Z,3.98
2018-01-12T13:53:57.716Z,3.92
2018-01-12T13:56:26.169Z,3.97
2018-01-12T13:58:54.571Z,3.94
2018-01-12T14:01:22.970Z,3.84
2018-01-12T14:03:52.092Z,3.98
2018-01-12T14:06:20.412Z,4.12
2018-01-12T14:08:48.842Z,4.01
2018-01-12T14:11:17.293Z,3.98
2018-01-12T14:13:45.701Z,3.93
2018-01-12T14:16:14.104Z,3.95
2018-01-12T14:18:43.243Z,3.88
2018-01-12T14:21:11.644Z,3.88
2018-01-12T14:23:40.059Z,3.85
2018-01-12T14:26:09.315Z,3.98
2018-01-12T14:28:37.745Z,3.92
2018-01-12T14:31:06.848Z,3.83
2018-01-12T14:33:36.013Z,3.81
2018-01-12T14:36:04.419Z,3.78
2018-01-12T14:38:32.767Z,3.72
2018-01-12T14:41:01.137Z,3.83
2018-01-12T14:43:29.488Z,3.75
2018-01-12T14:45:57.866Z,3.66
2018-01-12T14:48:26.222Z,3.57
2018-01-12T14:50:54.620Z,3.53
2018-01-12T14:53:22.948Z,3.58
2018-01-12T14:55:51.301Z,3.71
2018-01-12T14:58:19.888Z,3.73
2018-01-12T15:00:48.372Z,3.82
2018-01-12T15:03:16.884Z,3.83
2018-01-12T15:05:45.338Z,3.86
2018-01-12T15:08:13.798Z,3.89
2018-01-12T15:10:42.271Z,3.92
2018-01-12T15:13:10.893Z,4.05
2018-01-12T15:15:39.299Z,4.00
2018-01-12T15:18:07.824Z,4.01
2018-01-12T15:20:36.178Z,4.06
2018-01-12T15:23:04.538Z,3.88
2018-01-12T15:25:32.868Z,3.67
2018-01-12T15:28:01.196Z,3.72
2018-01-12T15:30:29.606Z,3.65
2018-01-12T15:32:58.058Z,3.54
2018-01-12T15:35:26.430Z,3.47
2018-01-12T15:37:54.767Z,3.56
2018-01-12T15:40:23.174Z,3.55
2018-01-12T15:42:52.416Z,3.65
2018-01-12T15:45:20.842Z,3.50
2018-01-12T15:47:49.223Z,3.56
2018-01-12T15:50:18.324Z,3.48
2018-01-12T15:52:47.491Z,3.42
2018-01-12T15:55:15.928Z,3.25
2018-01-12T15:57:45.118Z,3.25
2018-01-12T16:00:13.530Z,3.27
2018-01-12T16:02:42.655Z,3.33
2018-01-12T16:05:11.027Z,3.30
2018-01-12T16:07:39.479Z,3.33
2018-01-12T16:10:07.898Z,3.26
2018-01-12T16:12:37.067Z,3.32
2018-01-12T16:15:05.393Z,3.36
2018-01-12T16:17:33.804Z,3.31
2018-01-12T16:20:02.272Z,3.36
2018-01-12T16:22:30.639Z,3.36
2018-01-12T16:24:59.041Z,3.47
2018-01-12T16:27:27.402Z,3.40
2018-01-12T16:29:55.838Z,3.56
2018-01-12T16:32:24.255Z,3.44
2018-01-12T16:34:52.694Z,3.43
2018-01-12T16:37:21.138Z,3.43
2018-01-12T16:39:49.558Z,3.52
2018-01-12T16:42:18.695Z,3.47
2018-01-12T16:44:47.135Z,3.45
2018-01-12T16:47:15.538Z,3.47
2018-01-12T16:49:43.951Z,3.50
2018-01-12T16:52:12.353Z,3.50
2018-01-12T16:54:40.680Z,3.53
2018-01-12T16:57:09.032Z,3.52
2018-01-12T16:59:37.601Z,3.43
2018-01-12T17:02:05.944Z,3.41
2018-01-12T17:04:34.339Z,3.45
2018-01-12T17:07:02.893Z,3.37
2018-01-12T17:09:31.313Z,3.28
2018-01-12T17:11:59.750Z,3.31
2018-01-12T17:14:28.115Z,3.38
2018-01-12T17:16:57.218Z,3.42
2018-01-12T17:19:25.776Z,3.37
2018-01-12T17:21:54.891Z,3.29
2018-01-12T17:24:23.227Z,3.32
2018-01-12T17:26:51.778Z,3.33
2018-01-12T17:29:20.180Z,3.21
2018-01-12T17:31:48.513Z,3.09
2018-01-12T17:34:17.223Z,3.22
2018-01-12T17:36:45.556Z,3.14
2018-01-12T17:39:14.714Z,3.17
2018-01-12T17:41:43.138Z,3.20
2018-01-12T17:44:11.472Z,3.25
2018-01-12T17:46:39.806Z,3.41
2018-01-12T17:49:08.428Z,3.41
2018-01-12T17:51:36.846Z,3.46
2018-01-12T17:54:05.209Z,3.34
2018-01-12T17:56:33.549Z,3.22
2018-01-12T17:59:01.955Z,3.10
2018-01-12T18:01:30.428Z,3.26
2018-01-12T18:03:58.839Z,3.23
2018-01-12T18:06:27.263Z,3.30
2018-01-12T18:08:55.637Z,3.28
2018-01-12T18:11:24.034Z,3.26
2018-01-12T18:13:52.459Z,3.39
2018-01-12T18:16:20.876Z,3.33
2018-01-12T18:18:49.298Z,3.30
2018-01-12T18:21:17.640Z,3.39
2018-01-12T18:23:45.995Z,3.32
2018-01-12T18:26:14.425Z,3.28
2018-01-12T18:28:42.765Z,3.37
2018-01-12T18:31:11.104Z,3.26
2018-01-12T18:33:40.279Z,3.29
2018-01-12T18:36:08.623Z,3.21
2018-01-12T18:38:36.967Z,3.25
2018-01-12T18:41:05.399Z,3.28
2018-01-12T18:43:33.777Z,3.38
2018-01-12T18:46:02.191Z,3.40
2018-01-12T18:48:31.410Z,3.33
2018-01-12T18:50:59.771Z,3.37
2018-01-12T18:53:28.950Z,3.50
2018-01-12T18:55:58.156Z,3.45
2018-01-12T18:58:27.290Z,3.39
2018-01-12T19:00:55.690Z,3.35
2018-01-12T19:03:24.141Z,3.39
2018-01-12T19:05:52.519Z,3.36
2018-01-12T19:08:20.917Z,3.31
2018-01-12T19:10:49.481Z,3.35
2018-01-12T19:13:17.815Z,3.35
2018-01-12T19:15:46.157Z,3.35
2018-01-12T19:18:14.504Z,3.28
2018-01-12T19:20:42.827Z,3.35
2018-01-12T19:23:11.209Z,3.30
2018-01-12T19:25:39.603Z,3.35
2018-01-12T19:28:07.986Z,3.39
2018-01-12T19:30:37.156Z,3.46
2018-01-12T19:33:05.594Z,3.47
2018-01-12T19:35:33.998Z,3.44
2018-01-12T19:38:02.400Z,3.46
2018-01-12T19:40:30.839Z,3.48
2018-01-12T19:42:59.416Z,3.52
2018-01-12T19:45:27.792Z,3.52
2018-01-12T19:47:56.151Z,3.42
2018-01-12T19:50:25.341Z,3.49
2018-01-12T19:52:54.534Z,3.47
2018-01-12T19:55:23.709Z,3.35
2018-01-12T19:57:52.065Z,3.42
2018-01-12T20:00:20.414Z,3.48
2018-01-12T20:02:49.520Z,3.47
2018-01-12T20:05:17.910Z,3.27
2018-01-12T20:07:46.455Z,3.23
2018-01-12T20:10:15.552Z,3.22
2018-01-12T20:12:44.657Z,3.30
2018-01-12T20:15:13.855Z,3.43
2018-01-12T20:17:42.967Z,3.53
2018-01-12T20:20:11.295Z,3.54
2018-01-12T20:22:39.707Z,3.56
2018-01-12T20:25:08.063Z,3.50
2018-01-12T20:27:36.615Z,3.51
2018-01-12T20:30:05.054Z,3.51
2018-01-12T20:32:33.541Z,3.50
2018-01-12T20:35:02.094Z,3.39
2018-01-12T20:37:30.544Z,3.41
2018-01-12T20:39:59.736Z,3.47
2018-01-12T20:42:28.739Z,3.47
2018-01-12T20:44:57.323Z,3.45
2018-01-12T20:47:25.744Z,3.40
2018-01-12T20:49:54.113Z,3.48
2018-01-12T20:52:22.539Z,3.47
2018-01-12T20:54:51.747Z,3.51
2018-01-12T20:57:20.201Z,3.42
2018-01-12T20:59:48.758Z,3.46
2018-01-12T21:02:17.179Z,3.52
2018-01-12T21:04:45.538Z,3.40
2018-01-12T21:07:13.968Z,3.42
2018-01-12T21:09:42.432Z,3.39
2018-01-12T21:12:10.807Z,3.52
2018-01-12T21:14:39.167Z,3.64
2018-01-12T21:17:07.664Z,3.57
2018-01-12T21:19:36.225Z,3.60
2018-01-12T21:22:04.601Z,3.53
2018-01-12T21:24:32.947Z,3.47
2018-01-12T21:27:02.234Z,3.37
2018-01-12T21:29:30.628Z,3.30
2018-01-12T21:31:59.067Z,3.41
2018-01-12T21:34:27.468Z,3.48
2018-01-12T21:36:55.796Z,3.46
2018-01-12T21:39:26.486Z,3.42
2018-01-12T21:41:54.907Z,3.32
2018-01-12T21:44:23.330Z,3.32
2018-01-12T21:46:51.755Z,3.39
2018-01-12T21:49:20.183Z,3.39
2018-01-12T21:51:48.648Z,3.32
2018-01-12T21:54:17.011Z,3.30
2018-01-12T21:56:45.422Z,3.41
2018-01-12T21:59:13.909Z,3.40
2018-01-12T22:01:42.275Z,3.31
2018-01-12T22:04:10.778Z,3.47
2018-01-12T22:06:39.879Z,3.37
2018-01-12T22:09:08.282Z,3.31
2018-01-12T22:11:36.710Z,3.39
2018-01-12T22:14:05.166Z,3.31
2018-01-12T22:16:33.594Z,3.34
2018-01-12T22:19:02.690Z,3.42
2018-01-12T22:21:31.881Z,3.44
2018-01-12T22:24:00.274Z,3.33
2018-01-12T22:26:29.480Z,3.27
2018-01-12T22:28:58.734Z,3.31
2018-01-12T22:31:27.136Z,3.33
2018-01-12T22:33:55.494Z,3.33
2018-01-12T22:36:23.835Z,3.38
2018-01-12T22:38:52.159Z,3.49
2018-01-12T22:41:20.614Z,3.51
2018-01-12T22:43:48.951Z,3.54
2018-01-12T22:46:17.297Z,3.40
2018-01-12T22:48:45.685Z,3.48
2018-01-12T22:51:14.881Z,3.47
2018-01-12T22:53:44.000Z,3.45
2018-01-12T22:56:12.425Z,3.45
2018-01-12T22:58:40.766Z,3.43
2018-01-12T23:01:09.192Z,3.42
2018-01-12T23:03:37.670Z,3.43
2018-01-12T23:06:06.095Z,3.31
2018-01-12T23:08:34.456Z,3.33
2018-01-12T23:11:03.577Z,3.44
2018-01-12T23:13:31.947Z,3.45
2018-01-12T23:16:00.340Z,3.38
2018-01-12T23:18:28.795Z,3.32
2018-01-12T23:20:57.930Z,3.36
2018-01-12T23:23:26.265Z,3.30
2018-01-12T23:25:55.353Z,3.23
2018-01-12T23:28:24.533Z,3.37
2018-01-12T23:30:52.964Z,3.41
2018-01-12T23:33:21.369Z,3.42
2018-01-12T23:35:49.811Z,3.46
2018-01-12T23:38:18.252Z,3.39
2018-01-12T23:40:46.592Z,3.37
2018-01-12T23:43:14.949Z,3.40
2018-01-12T23:45:43.271Z,3.37
2018-01-12T23:48:11.619Z,3.44
2018-01-12T23:50:40.026Z,3.41
2018-01-12T23:53:08.359Z,3.41
2018-01-12T23:55:36.742Z,3.34
2018-01-12T23:58:05.140Z,3.30
